createdAt,value
2023-01-03T00:01:10.562Z,102288.94
2023-01-03T00:03:37.064Z,102300.44
2023-01-03T00:06:03.774Z,102300.78
2023-01-03T00:08:30.342Z,102306.06
2023-01-03T00:10:56.756Z,102305.38
2023-01-03T00:13:23.238Z,102310.84
2023-01-03T00:15:49.747Z,102304.81
2023-01-03T00:18:16.200Z,102302.63
2023-01-03T00:20:43.043Z,102314.75
2023-01-03T00:23:09.599Z,102307.44
2023-01-03T00:25:36.031Z,102316.38
2023-01-03T00:28:02.537Z,102315.19
2023-01-03T00:30:29.101Z,102322.63
2023-01-03T00:32:55.725Z,102320.97
2023-01-03T00:35:22.148Z,102326.22
2023-01-03T00:37:48.560Z,102331.09
2023-01-03T00:40:15.018Z,102318.03
2023-01-03T00:43:00.160Z,102338.09
2023-01-03T00:45:28.093Z,102332.16
2023-01-03T00:47:56.339Z,102325.16
2023-01-03T00:50:22.749Z,102324.47
2023-01-03T00:52:49.170Z,102327.34
2023-01-03T00:55:15.639Z,102329.53
2023-01-03T00:57:42.065Z,102329.25
2023-01-03T01:00:08.952Z,102330.75
2023-01-03T01:02:35.485Z,102333.56
2023-01-03T01:05:02.019Z,102334.63
2023-01-03T01:07:28.437Z,102340.84
2023-01-03T01:09:54.903Z,102331.44
2023-01-03T01:12:21.380Z,102332.06
2023-01-03T01:14:47.809Z,102339.50
2023-01-03T01:17:19.164Z,102351.47
2023-01-03T01:19:48.760Z,102363.72
2023-01-03T01:22:15.189Z,102355.97
2023-01-03T01:24:41.758Z,102353.78
2023-01-03T01:27:08.413Z,102349.59
2023-01-03T01:29:35.090Z,102350.88
2023-01-03T01:32:01.872Z,102355.72
2023-01-03T01:34:29.040Z,102364.66
2023-01-03T01:36:55.734Z,102357.38
2023-01-03T01:39:24.816Z,102355.34
2023-01-03T01:42:25.025Z,102362.94
2023-01-03T01:44:57.805Z,102363.16
2023-01-03T01:47:35.093Z,102365.22
2023-01-03T01:50:05.425Z,102372.44
2023-01-03T01:52:34.146Z,102368.31
2023-01-03T01:55:04.323Z,102366.88
2023-01-03T01:57:31.477Z,102368.63
2023-01-03T01:59:58.329Z,102373.88
2023-01-03T02:02:24.934Z,102372.16
2023-01-03T02:04:54.228Z,102370.31
2023-01-03T02:07:22.299Z,102372.25
2023-01-03T02:09:52.291Z,102373.78
2023-01-03T02:12:47.629Z,102375.22
2023-01-03T02:15:35.305Z,102377.03
2023-01-03T02:18:34.154Z,102368.31
2023-01-03T02:21:20.197Z,102365.81
2023-01-03T02:24:21.228Z,102376.25
2023-01-03T02:26:58.716Z,102381.22
2023-01-03T02:29:49.587Z,102378.25
2023-01-03T02:32:40.743Z,102377.41
2023-01-03T02:35:17.464Z,102382.94
2023-01-03T02:37:53.818Z,102392.13
2023-01-03T02:40:33.352Z,102391.47
2023-01-03T02:43:11.799Z,102392.28
2023-01-03T02:46:05.975Z,102393.97
2023-01-03T02:48:38.213Z,102393.13
2023-01-03T02:51:12.934Z,102391.41
2023-01-03T02:53:46.082Z,102387.53
2023-01-03T02:56:17.672Z,102389.38
2023-01-03T02:58:48.071Z,102389.06
2023-01-03T03:01:16.424Z,102390.91
2023-01-03T03:03:43.450Z,102390.97
2023-01-03T03:06:15.610Z,102384.38
2023-01-03T03:08:45.779Z,102379.00
2023-01-03T03:11:32.237Z,102383.81
2023-01-03T03:14:06.495Z,102374.59
2023-01-03T03:16:47.550Z,102378.25
2023-01-03T03:19:47.360Z,102373.25
2023-01-03T03:22:35.555Z,102371.22
2023-01-03T03:25:07.733Z,102370.16
2023-01-03T03:27:56.041Z,102373.91
2023-01-03T03:30:24.867Z,102370.97
2023-01-03T03:32:58.486Z,102370.09
2023-01-03T03:35:26.329Z,102368.34
2023-01-03T03:37:55.830Z,102368.06
2023-01-03T03:40:44.371Z,102365.34
2023-01-03T03:43:47.512Z,102374.06
2023-01-03T03:46:21.733Z,102369.50
2023-01-03T03:49:18.078Z,102369.06
2023-01-03T03:51:47.736Z,102371.22
2023-01-03T03:54:19.215Z,102375.81
2023-01-03T03:56:52.749Z,102373.03
2023-01-03T03:59:22.639Z,102378.25
2023-01-03T04:01:49.920Z,102381.97
2023-01-03T04:04:24.685Z,102392.69
2023-01-03T04:06:52.307Z,102394.81
2023-01-03T04:09:19.308Z,102391.44
2023-01-03T04:11:45.892Z,102397.97
2023-01-03T04:14:12.636Z,102395.81
2023-01-03T04:16:40.945Z,102397.56
2023-01-03T04:19:08.247Z,102400.34
2023-01-03T04:21:36.536Z,102401.84
2023-01-03T04:24:04.667Z,102400.81
2023-01-03T04:26:31.803Z,102403.38
2023-01-03T04:28:58.261Z,102406.53
2023-01-03T04:31:24.743Z,102416.75
2023-01-03T04:33:51.465Z,102414.25
2023-01-03T04:36:18.469Z,102411.56
2023-01-03T04:38:45.269Z,102414.66
2023-01-03T04:41:11.765Z,102409.16
2023-01-03T04:43:58.463Z,102415.72
2023-01-03T04:46:25.292Z,102412.16
2023-01-03T04:48:51.750Z,102414.59
2023-01-03T04:51:18.250Z,102420.66
2023-01-03T04:53:44.755Z,102413.97
2023-01-03T04:56:11.186Z,102413.50
2023-01-03T04:58:37.819Z,102414.00
2023-01-03T05:01:08.119Z,102406.56
2023-01-03T05:03:35.585Z,102407.59
2023-01-03T05:06:04.116Z,102409.34
2023-01-03T05:08:30.885Z,102403.81
2023-01-03T05:10:57.348Z,102402.84
2023-01-03T05:13:23.733Z,102400.88
2023-01-03T05:15:50.177Z,102400.88
2023-01-03T05:18:17.099Z,102402.69
2023-01-03T05:21:03.210Z,102400.28
2023-01-03T05:23:48.316Z,102402.78
2023-01-03T05:26:17.399Z,102401.59
2023-01-03T05:28:46.924Z,102399.56
2023-01-03T05:31:14.000Z,102411.88
2023-01-03T05:33:41.189Z,102402.34
2023-01-03T05:36:08.864Z,102401.63
2023-01-03T05:38:35.542Z,102397.00
2023-01-03T05:41:02.055Z,102387.59
2023-01-03T05:43:28.573Z,102387.50
2023-01-03T05:45:55.020Z,102388.34
2023-01-03T05:48:22.024Z,102391.13
2023-01-03T05:50:50.044Z,102393.81
2023-01-03T05:53:16.751Z,102389.66
2023-01-03T05:55:43.184Z,102384.81
2023-01-03T05:58:11.690Z,102384.38
2023-01-03T06:00:38.121Z,102384.66
2023-01-03T06:03:04.671Z,102380.22
2023-01-03T06:05:31.136Z,102387.16
2023-01-03T06:08:01.622Z,102386.28
2023-01-03T06:10:28.177Z,102376.91
2023-01-03T06:12:54.865Z,102384.22
2023-01-03T06:15:21.339Z,102382.84
2023-01-03T06:18:02.132Z,102379.63
2023-01-03T06:20:29.783Z,102381.88
2023-01-03T06:22:56.743Z,102378.44
2023-01-03T06:25:23.408Z,102369.63
2023-01-03T06:27:49.942Z,102368.59
2023-01-03T06:30:16.415Z,102373.94
2023-01-03T06:32:44.140Z,102369.47
2023-01-03T06:35:11.336Z,102359.44
2023-01-03T06:37:38.026Z,102368.72
2023-01-03T06:40:05.561Z,102376.97
2023-01-03T06:42:43.315Z,102377.56
2023-01-03T06:45:30.376Z,102369.31
2023-01-03T06:48:15.726Z,102370.69
2023-01-03T06:51:02.117Z,102369.31
2023-01-03T06:53:35.096Z,102368.59
2023-01-03T06:56:02.083Z,102361.63
2023-01-03T06:58:28.528Z,102363.84
2023-01-03T07:00:57.459Z,102356.97
2023-01-03T07:03:24.480Z,102366.03
2023-01-03T07:05:51.195Z,102368.94
2023-01-03T07:08:17.695Z,102375.16
2023-01-03T07:10:44.098Z,102374.66
2023-01-03T07:13:29.237Z,102383.63
2023-01-03T07:15:55.700Z,102374.97
2023-01-03T07:18:22.323Z,102368.84
2023-01-03T07:20:48.838Z,102367.56
2023-01-03T07:23:15.360Z,102373.63
2023-01-03T07:25:42.487Z,102364.28
2023-01-03T07:28:13.442Z,102366.06
2023-01-03T07:30:42.613Z,102369.94
2023-01-03T07:33:10.317Z,102364.16
2023-01-03T07:35:37.354Z,102372.19
2023-01-03T07:38:04.765Z,102366.16
2023-01-03T07:40:31.883Z,102370.91
2023-01-03T07:43:17.357Z,102371.22
2023-01-03T07:45:45.240Z,102374.84
2023-01-03T07:48:11.834Z,102384.31
2023-01-03T07:50:39.147Z,102384.63
2023-01-03T07:53:07.471Z,102381.66
2023-01-03T07:55:35.766Z,102386.59
2023-01-03T07:58:02.716Z,102391.97
2023-01-03T08:00:29.465Z,102399.50
2023-01-03T08:02:56.373Z,102396.53
2023-01-03T08:05:23.957Z,102392.22
2023-01-03T08:07:52.048Z,102390.16
2023-01-03T08:10:37.666Z,102395.16
2023-01-03T08:13:19.712Z,102385.38
2023-01-03T08:15:48.485Z,102382.00
2023-01-03T08:18:16.984Z,102382.25
2023-01-03T08:20:43.700Z,102389.78
2023-01-03T08:23:10.286Z,102400.16
2023-01-03T08:25:36.890Z,102402.56
2023-01-03T08:28:04.310Z,102402.03
2023-01-03T08:30:31.245Z,102405.25
2023-01-03T08:33:01.364Z,102406.63
2023-01-03T08:35:33.046Z,102413.28
2023-01-03T08:38:01.857Z,102413.59
2023-01-03T08:40:29.853Z,102425.25
2023-01-03T08:42:56.513Z,102421.03
2023-01-03T08:45:23.057Z,102427.69
2023-01-03T08:47:49.643Z,102432.69
2023-01-03T08:50:16.280Z,102436.59
2023-01-03T08:52:42.824Z,102432.78
2023-01-03T08:55:09.795Z,102428.75
2023-01-03T08:57:36.295Z,102437.38
2023-01-03T09:00:05.651Z,102433.78
2023-01-03T09:02:34.878Z,102437.81
2023-01-03T09:05:01.630Z,102434.66
2023-01-03T09:07:28.239Z,102432.97
2023-01-03T09:09:54.694Z,102423.31
2023-01-03T09:12:21.254Z,102417.00
2023-01-03T09:14:47.657Z,102412.50
2023-01-03T09:17:14.054Z,102411.63
2023-01-03T09:19:40.506Z,102415.47
2023-01-03T09:22:07.220Z,102415.84
2023-01-03T09:24:33.960Z,102419.91
2023-01-03T09:27:00.513Z,102422.19
2023-01-03T09:29:26.997Z,102423.44
2023-01-03T09:31:53.612Z,102418.09
2023-01-03T09:34:20.060Z,102427.06
2023-01-03T09:36:46.462Z,102417.91
2023-01-03T09:39:14.420Z,102422.00
2023-01-03T09:41:41.475Z,102417.63
2023-01-03T09:44:09.419Z,102423.22
2023-01-03T09:46:37.705Z,102415.47
2023-01-03T09:49:06.916Z,102409.13
2023-01-03T09:52:03.219Z,102408.06
2023-01-03T09:54:52.962Z,102419.47
2023-01-03T09:57:44.385Z,102412.56
2023-01-03T10:00:32.374Z,102410.75
2023-01-03T10:03:50.832Z,102411.06
2023-01-03T10:06:50.580Z,102409.81
2023-01-03T10:09:25.644Z,102411.72
2023-01-03T10:12:26.715Z,102407.03
2023-01-03T10:15:30.082Z,102410.09
2023-01-03T10:18:18.497Z,102418.13
2023-01-03T10:21:06.380Z,102416.69
2023-01-03T10:23:33.723Z,102414.47
2023-01-03T10:26:00.225Z,102411.03
2023-01-03T10:28:36.302Z,102420.50
2023-01-03T10:31:27.266Z,102411.69
2023-01-03T10:33:53.736Z,102412.47
2023-01-03T10:36:21.695Z,102409.00
2023-01-03T10:38:52.974Z,102413.09
2023-01-03T10:41:33.617Z,102413.91
2023-01-03T10:44:02.804Z,102409.38
2023-01-03T10:46:30.991Z,102411.78
2023-01-03T10:49:30.412Z,102412.59
2023-01-03T10:52:02.735Z,102411.97
2023-01-03T10:54:48.629Z,102411.84
2023-01-03T10:57:46.455Z,102413.78
2023-01-03T11:00:35.819Z,102421.59
2023-01-03T11:03:18.299Z,102415.59
2023-01-03T11:05:57.479Z,102416.34
2023-01-03T11:08:34.964Z,102410.84
2023-01-03T11:11:01.569Z,102421.31
2023-01-03T11:13:42.269Z,102416.91
2023-01-03T11:16:19.398Z,102418.84
2023-01-03T11:19:04.413Z,102417.09
2023-01-03T11:21:53.446Z,102415.94
2023-01-03T11:24:34.820Z,102409.31
2023-01-03T11:27:20.509Z,102407.22
2023-01-03T11:30:22.599Z,102405.28
2023-01-03T11:33:13.992Z,102405.09
2023-01-03T11:36:09.509Z,102408.44
2023-01-03T11:39:03.118Z,102384.84
2023-01-03T11:41:55.859Z,102387.56
2023-01-03T11:44:34.141Z,102379.38
2023-01-03T11:47:31.571Z,102377.19
2023-01-03T11:50:26.207Z,102369.31
2023-01-03T11:53:01.693Z,102365.56
2023-01-03T11:55:42.601Z,102362.91
2023-01-03T11:58:45.374Z,102366.09
2023-01-03T12:01:20.743Z,102358.44
2023-01-03T12:04:15.152Z,102349.03
2023-01-03T12:07:45.300Z,102357.31
2023-01-03T12:10:11.377Z,102359.66
2023-01-03T12:12:59.760Z,102356.22
2023-01-03T12:15:41.198Z,102348.84
2023-01-03T12:18:18.783Z,102336.03
2023-01-03T12:20:58.900Z,102336.03
2023-01-03T12:23:53.312Z,102327.97
2023-01-03T12:26:24.710Z,102330.03
2023-01-03T12:28:59.924Z,102329.69
2023-01-03T12:31:33.034Z,102330.44
2023-01-03T12:34:30.593Z,102334.22
2023-01-03T12:37:13.739Z,102327.69
2023-01-03T12:39:49.437Z,102327.91
2023-01-03T12:42:51.077Z,102331.00
2023-01-03T12:45:38.785Z,102334.69
2023-01-03T12:48:11.395Z,102328.22
2023-01-03T12:50:49.303Z,102322.84
2023-01-03T12:53:25.429Z,102300.16
2023-01-03T12:56:10.599Z,102302.97
2023-01-03T12:58:55.656Z,102298.22
2023-01-03T13:01:45.843Z,102306.41
2023-01-03T13:04:23.764Z,102304.13
2023-01-03T13:07:06.153Z,102305.97
2023-01-03T13:09:37.845Z,102295.44
2023-01-03T13:12:21.232Z,102309.06
2023-01-03T13:14:53.351Z,102308.00
2023-01-03T13:17:27.600Z,102308.66
2023-01-03T13:19:57.027Z,102308.53
2023-01-03T13:22:54.585Z,102296.59
2023-01-03T13:25:27.275Z,102290.69
2023-01-03T13:27:56.304Z,102287.69
2023-01-03T13:30:26.100Z,102276.06
2023-01-03T13:33:04.887Z,102275.84
2023-01-03T13:35:37.054Z,102278.75
2023-01-03T13:38:23.820Z,102264.94
2023-01-03T13:43:49.797Z,102272.06
2023-01-03T13:46:25.075Z,102273.88
2023-01-03T13:49:07.104Z,102270.22
2023-01-03T13:51:35.638Z,102267.41
2023-01-03T13:54:25.519Z,102274.84
2023-01-03T13:56:54.873Z,102266.69
2023-01-03T13:59:35.908Z,102271.09
2023-01-03T14:02:29.813Z,102254.50
2023-01-03T14:05:11.667Z,102246.78
2023-01-03T14:07:56.437Z,102247.91
2023-01-03T14:10:41.359Z,102237.50
2023-01-03T14:13:46.815Z,102240.63
2023-01-03T14:16:21.346Z,102250.56
2023-01-03T14:19:17.163Z,102240.22
2023-01-03T14:21:46.526Z,102235.72
2023-01-03T14:24:34.412Z,102241.66
2023-01-03T14:27:17.198Z,102239.81
2023-01-03T14:29:49.775Z,102246.81
2023-01-03T14:32:22.313Z,102251.97
2023-01-03T14:34:49.517Z,102239.50
2023-01-03T14:37:18.918Z,102247.78
2023-01-03T14:40:00.686Z,102250.25
2023-01-03T14:42:27.953Z,102251.44
2023-01-03T14:44:59.496Z,102246.69
2023-01-03T14:47:34.269Z,102241.53
2023-01-03T14:50:02.279Z,102242.00
2023-01-03T14:52:32.944Z,102244.34
2023-01-03T14:55:08.158Z,102244.78
2023-01-03T14:57:39.033Z,102245.44
2023-01-03T15:00:07.629Z,102242.22
2023-01-03T15:02:38.505Z,102237.03
2023-01-03T15:05:23.745Z,102239.41
2023-01-03T15:07:50.479Z,102229.19
2023-01-03T15:10:27.576Z,102236.19
2023-01-03T15:13:00.745Z,102230.28
2023-01-03T15:15:39.530Z,102236.59
2023-01-03T15:18:09.666Z,102236.84
2023-01-03T15:20:43.832Z,102234.13
2023-01-03T15:23:40.821Z,102240.91
2023-01-03T15:26:18.618Z,102240.81
2023-01-03T15:29:04.863Z,102231.75
2023-01-03T15:31:55.670Z,102237.25
2023-01-03T15:34:34.334Z,102228.88
2023-01-03T15:37:17.760Z,102234.03
2023-01-03T15:39:48.999Z,102237.69
2023-01-03T15:42:46.080Z,102242.44
2023-01-03T15:45:19.742Z,102230.06
2023-01-03T15:47:49.613Z,102237.69
2023-01-03T15:50:20.645Z,102231.03
2023-01-03T15:52:49.122Z,102228.13
2023-01-03T15:55:22.234Z,102222.00
2023-01-03T15:57:52.155Z,102214.38
2023-01-03T16:00:21.737Z,102226.94
2023-01-03T16:02:49.568Z,102228.75
2023-01-03T16:05:22.200Z,102230.03
2023-01-03T16:07:52.964Z,102231.31
2023-01-03T16:10:21.759Z,102232.63
2023-01-03T16:12:48.619Z,102230.91
2023-01-03T16:15:21.109Z,102228.34
2023-01-03T16:17:49.297Z,102222.19
2023-01-03T16:20:20.266Z,102210.41
2023-01-03T16:23:00.582Z,102209.00
2023-01-03T16:25:28.991Z,102212.31
2023-01-03T16:27:55.842Z,102211.22
2023-01-03T16:30:24.708Z,102198.56
2023-01-03T16:32:54.707Z,102203.16
2023-01-03T16:35:21.163Z,102205.78
2023-01-03T16:37:47.731Z,102210.06
2023-01-03T16:40:19.640Z,102208.00
2023-01-03T16:42:46.635Z,102210.41
2023-01-03T16:45:13.198Z,102204.38
2023-01-03T16:47:40.153Z,102198.44
2023-01-03T16:50:16.077Z,102202.00
2023-01-03T16:52:46.494Z,102197.16
2023-01-03T16:55:27.061Z,102189.19
2023-01-03T16:57:55.241Z,102189.66
2023-01-03T17:00:25.410Z,102178.03
2023-01-03T17:02:56.413Z,102182.34
2023-01-03T17:05:23.737Z,102190.38
2023-01-03T17:07:53.101Z,102178.78
2023-01-03T17:10:27.334Z,102184.94
2023-01-03T17:12:54.920Z,102169.34
2023-01-03T17:15:21.833Z,102163.19
2023-01-03T17:17:48.499Z,102161.91
2023-01-03T17:20:17.243Z,102161.16
2023-01-03T17:22:51.278Z,102158.59
2023-01-03T17:25:18.046Z,102158.47
2023-01-03T17:27:49.354Z,102154.91
2023-01-03T17:30:21.922Z,102151.59
2023-01-03T17:32:48.602Z,102152.13
2023-01-03T17:35:16.324Z,102161.91
2023-01-03T17:38:14.288Z,102154.91
2023-01-03T17:40:34.219Z,102156.97
2023-01-03T17:43:01.967Z,102145.25
2023-01-03T17:45:47.410Z,102140.84
2023-01-03T17:48:32.898Z,102137.09
2023-01-03T17:51:05.730Z,102147.72
2023-01-03T17:53:34.895Z,102125.88
2023-01-03T17:56:01.861Z,102127.94
2023-01-03T17:58:34.558Z,102116.75
2023-01-03T18:01:02.163Z,102130.09
2023-01-03T18:03:30.826Z,102123.97
2023-01-03T18:06:05.816Z,102123.28
2023-01-03T18:08:35.709Z,102130.41
2023-01-03T18:11:02.912Z,102127.72
2023-01-03T18:13:36.045Z,102121.34
2023-01-03T18:16:03.210Z,102129.94
2023-01-03T18:18:32.482Z,102128.75
2023-01-03T18:20:59.464Z,102120.91
2023-01-03T18:23:36.207Z,102105.31
2023-01-03T18:26:08.264Z,102097.44
2023-01-03T18:28:35.200Z,102103.91
2023-01-03T18:31:01.906Z,102093.81
2023-01-03T18:33:28.734Z,102090.38
2023-01-03T18:35:55.999Z,102097.34
2023-01-03T18:38:28.003Z,102098.31
2023-01-03T18:41:04.006Z,102091.00
2023-01-03T18:43:32.033Z,102070.47
2023-01-03T18:45:58.753Z,102083.06
2023-01-03T18:48:25.668Z,102087.03
2023-01-03T18:51:00.280Z,102072.06
2023-01-03T18:53:31.336Z,102080.25
2023-01-03T18:55:59.473Z,102079.38
2023-01-03T18:58:41.020Z,102060.34
2023-01-03T19:01:10.897Z,102045.94
2023-01-03T19:03:40.322Z,102048.72
2023-01-03T19:06:16.459Z,102056.69
2023-01-03T19:08:43.714Z,102038.72
2023-01-03T19:11:19.172Z,102047.97
2023-01-03T19:13:53.091Z,102037.34
2023-01-03T19:16:22.317Z,102038.22
2023-01-03T19:18:49.750Z,102041.22
2023-01-03T19:21:17.741Z,102056.53
2023-01-03T19:23:49.866Z,102048.19
2023-01-03T19:26:28.407Z,102057.56
2023-01-03T19:28:59.924Z,102049.72
2023-01-03T19:31:29.852Z,102045.94
2023-01-03T19:33:56.495Z,102037.97
2023-01-03T19:36:22.992Z,102034.31
2023-01-03T19:38:51.943Z,102014.13
2023-01-03T19:41:20.254Z,102029.16
2023-01-03T19:43:47.650Z,102004.88
2023-01-03T19:46:27.546Z,102009.03
2023-01-03T19:48:54.114Z,102007.44
2023-01-03T19:51:20.772Z,102010.13
2023-01-03T19:53:47.358Z,101993.75
2023-01-03T19:56:22.504Z,101983.22
2023-01-03T19:58:50.199Z,101988.47
2023-01-03T20:01:38.691Z,101982.50
2023-01-03T20:04:48.123Z,101980.41
2023-01-03T20:07:14.794Z,101967.84
2023-01-03T20:09:41.378Z,101973.34
2023-01-03T20:12:15.397Z,101965.06
2023-01-03T20:14:47.190Z,101953.66
2023-01-03T20:17:23.842Z,101966.38
2023-01-03T20:19:50.912Z,101969.28
2023-01-03T20:22:52.984Z,101964.28
2023-01-03T20:25:13.392Z,101960.75
2023-01-03T20:27:44.567Z,101952.47
2023-01-03T20:30:19.332Z,101955.03
2023-01-03T20:32:45.930Z,101947.09
2023-01-03T20:38:05.179Z,101930.19
2023-01-03T20:40:31.938Z,101916.53
2023-01-03T20:43:02.268Z,101912.47
2023-01-03T20:45:29.441Z,101923.00
2023-01-03T20:47:56.052Z,101925.59
2023-01-03T20:50:27.744Z,101907.28
2023-01-03T20:52:55.217Z,101913.75
2023-01-03T20:55:24.879Z,101905.78
2023-01-03T20:57:51.702Z,101905.69
2023-01-03T21:00:31.491Z,101909.47
2023-01-03T21:02:59.194Z,101905.03
2023-01-03T21:05:26.585Z,101912.66
2023-01-03T21:08:11.888Z,101887.94
2023-01-03T21:10:41.729Z,101896.50
2023-01-03T21:13:10.127Z,101891.88
2023-01-03T21:15:37.752Z,101889.06
2023-01-03T21:18:06.046Z,101891.38
2023-01-03T21:20:33.185Z,101884.94
2023-01-03T21:22:59.896Z,101886.63
2023-01-03T21:25:30.448Z,101885.16
2023-01-03T21:27:57.082Z,101879.78
2023-01-03T21:30:24.548Z,101876.25
2023-01-03T21:32:51.227Z,101851.31
2023-01-03T21:35:20.848Z,101857.66
2023-01-03T21:37:48.149Z,101858.88
2023-01-03T21:40:18.992Z,101838.69
2023-01-03T21:43:05.632Z,101846.53
2023-01-03T21:45:56.499Z,101843.84
2023-01-03T21:48:23.464Z,101828.56
2023-01-03T21:50:50.227Z,101821.59
2023-01-03T21:53:19.685Z,101822.09
2023-01-03T21:55:47.480Z,101797.25
2023-01-03T21:58:16.043Z,101809.00
2023-01-03T22:00:43.601Z,101807.19
2023-01-03T22:03:36.112Z,101802.63
2023-01-03T22:06:10.870Z,101806.09
2023-01-03T22:08:38.773Z,101805.22
2023-01-03T22:11:05.470Z,101799.94
2023-01-03T22:13:33.052Z,101794.56
2023-01-03T22:16:08.033Z,101787.13
2023-01-03T22:18:35.481Z,101789.72
2023-01-03T22:21:07.299Z,101787.63
2023-01-03T22:23:34.974Z,101788.72
2023-01-03T22:26:07.388Z,101777.72
2023-01-03T22:28:35.579Z,101793.00
2023-01-03T22:31:02.298Z,101782.25
2023-01-03T22:33:28.814Z,101780.03
2023-01-03T22:35:55.407Z,101765.63
2023-01-03T22:38:22.100Z,101769.28
2023-01-03T22:40:48.698Z,101757.56
2023-01-03T22:43:15.107Z,101764.38
2023-01-03T22:45:41.643Z,101765.50
2023-01-03T22:48:08.177Z,101756.69
2023-01-03T22:50:34.770Z,101752.28
2023-01-03T22:53:01.473Z,101749.34
2023-01-03T22:55:32.033Z,101734.94
2023-01-03T22:57:59.472Z,101743.00
2023-01-03T23:00:26.030Z,101739.31
2023-01-03T23:02:52.541Z,101732.81
2023-01-03T23:05:20.092Z,101725.50
2023-01-03T23:07:46.605Z,101706.78
2023-01-03T23:10:13.212Z,101726.22
2023-01-03T23:12:57.996Z,101725.22
2023-01-03T23:15:30.463Z,101712.16
2023-01-03T23:17:57.818Z,101708.75
2023-01-03T23:20:31.829Z,101689.03
2023-01-03T23:23:05.775Z,101691.72
2023-01-03T23:25:34.481Z,101676.91
2023-01-03T23:28:01.107Z,101683.41
2023-01-03T23:30:27.713Z,101669.56
2023-01-03T23:32:54.248Z,101667.13
2023-01-03T23:35:20.845Z,101661.03
2023-01-03T23:37:47.676Z,101658.97
2023-01-03T23:40:14.653Z,101647.09
2023-01-03T23:42:41.164Z,101651.88
2023-01-03T23:45:07.930Z,101644.19
2023-01-03T23:47:34.471Z,101643.56
2023-01-03T23:50:00.946Z,101623.16
2023-01-03T23:52:27.419Z,101638.59
2023-01-03T23:55:00.572Z,101637.38
2023-01-03T23:57:29.102Z,101638.34
2023-01-03T23:59:55.647Z,101621.75
